createdAt,value
2016-04-23T00:00:01.435Z,33.23
2016-04-23T00:01:01.454Z,33.33
2016-04-23T00:02:01.488Z,33.42
2016-04-23T00:03:01.490Z,33.33
2016-04-23T00:04:01.540Z,33.42
2016-04-23T00:05:01.543Z,33.52
2016-04-23T00:06:01.561Z,33.42
2016-04-23T00:07:01.579Z,33.42
2016-04-23T00:08:01.613Z,33.52
2016-04-23T00:09:01.631Z,33.62
2016-04-23T00:10:01.650Z,33.71
2016-04-23T00:11:01.668Z,33.62
2016-04-23T00:12:01.702Z,33.52
2016-04-23T00:13:01.720Z,33.42
2016-04-23T00:14:01.739Z,33.42
2016-04-23T00:15:01.757Z,33.91
2016-04-23T00:16:01.775Z,33.71
2016-04-23T00:17:01.809Z,33.71
2016-04-23T00:18:01.828Z,34
2016-04-23T00:19:01.846Z,33.71
2016-04-23T00:20:08.692Z,33.81
2016-04-23T00:21:01.883Z,33.91
2016-04-23T00:22:01.917Z,34
2016-04-23T00:23:01.934Z,34
2016-04-23T00:24:01.953Z,33.81
2016-04-23T00:25:01.972Z,34
2016-04-23T00:26:01.989Z,34.19
2016-04-23T00:27:02.024Z,34.48
2016-04-23T00:28:02.042Z,34.67
2016-04-23T00:29:02.060Z,34.28
2016-04-23T00:30:02.094Z,34.38
2016-04-23T00:31:02.097Z,34.38
2016-04-23T00:32:02.178Z,34.67
2016-04-23T00:33:02.149Z,34.57
2016-04-23T00:34:02.183Z,34.77
2016-04-23T00:35:02.186Z,34.57
2016-04-23T00:36:02.219Z,34.67
2016-04-23T00:37:02.238Z,34.77
2016-04-23T00:38:02.257Z,35.05
2016-04-23T00:39:02.274Z,35.14
2016-04-23T00:40:02.293Z,34.77
2016-04-23T00:41:02.312Z,35.05
2016-04-23T00:42:02.345Z,35.14
2016-04-23T00:43:02.363Z,34.95
2016-04-23T00:44:02.382Z,34.95
2016-04-23T00:45:02.401Z,35.05
2016-04-23T00:46:02.418Z,35.13
2016-04-23T00:47:02.437Z,35.22
2016-04-23T00:48:02.471Z,35.03
2016-04-23T00:49:02.489Z,35.14
2016-04-23T00:50:02.507Z,35.53
2016-04-23T00:51:02.525Z,35.33
2016-04-23T00:52:02.545Z,35.32
2016-04-23T00:53:02.578Z,35.13
2016-04-23T00:54:02.597Z,35.33
2016-04-23T00:55:02.630Z,35.32
2016-04-23T00:56:02.633Z,35.13
2016-04-23T00:57:02.651Z,35.51
2016-04-23T00:58:02.685Z,35.82
2016-04-23T00:59:02.703Z,35.8
2016-04-23T01:00:02.722Z,35.8
2016-04-23T01:01:02.741Z,35.99
2016-04-23T01:02:02.758Z,35.6
2016-04-23T01:03:02.776Z,35.89
2016-04-23T01:04:02.810Z,36.08
2016-04-23T01:05:02.861Z,36.08
2016-04-23T01:06:02.847Z,35.8
2016-04-23T01:07:02.865Z,35.8
2016-04-23T01:08:02.900Z,35.99
2016-04-23T01:09:02.918Z,35.99
2016-04-23T01:10:02.936Z,35.99
2016-04-23T01:11:02.954Z,35.89
2016-04-23T01:12:02.974Z,36.18
2016-04-23T01:13:02.991Z,36.27
2016-04-23T01:14:03.009Z,35.8
2016-04-23T01:15:03.028Z,36.37
2016-04-23T01:16:03.061Z,36.37
2016-04-23T01:17:03.080Z,36.46
2016-04-23T01:18:03.098Z,36.27
2016-04-23T01:19:03.117Z,36.56
2016-04-23T01:20:03.151Z,36.18
2016-04-23T01:21:03.170Z,36.27
2016-04-23T01:22:03.187Z,36.56
2016-04-23T01:23:03.205Z,36.18
2016-04-23T01:24:03.240Z,36.56
2016-04-23T01:25:03.258Z,36.18
2016-04-23T01:26:03.276Z,36.46
2016-04-23T01:27:03.294Z,36.66
2016-04-23T01:28:03.328Z,36.56
2016-04-23T01:29:03.331Z,36.08
2016-04-23T01:30:03.380Z,36.46
2016-04-23T01:31:03.367Z,36.46
2016-04-23T01:32:03.402Z,36.37
2016-04-23T01:33:03.420Z,36.46
2016-04-23T01:34:03.438Z,36.66
2016-04-23T01:35:03.457Z,36.75
2016-04-23T01:36:03.475Z,36.27
2016-04-23T01:37:03.508Z,36.56
2016-04-23T01:38:03.527Z,36.85
2016-04-23T01:39:03.546Z,36.75
2016-04-23T01:40:03.563Z,36.85
2016-04-23T01:41:03.582Z,36.85
2016-04-23T01:42:03.601Z,37.04
2016-04-23T01:43:03.634Z,36.94
2016-04-23T01:44:03.652Z,37.04
2016-04-23T01:45:03.671Z,37.13
2016-04-23T01:46:03.690Z,37.23
2016-04-23T01:47:03.707Z,37.04
2016-04-23T01:48:03.726Z,37.3
2016-04-23T01:49:03.760Z,37.4
2016-04-23T01:50:03.778Z,37.21
2016-04-23T01:51:03.796Z,37.23
2016-04-23T01:52:03.814Z,37.4
2016-04-23T01:53:03.834Z,36.35
2016-04-23T01:54:03.851Z,37.4
2016-04-23T01:55:03.869Z,37.68
2016-04-23T01:56:03.889Z,37.59
2016-04-23T01:57:03.922Z,37.49
2016-04-23T01:58:03.940Z,36.83
2016-04-23T01:59:03.958Z,37.4
2016-04-23T02:00:03.978Z,37.4
2016-04-23T02:01:04.027Z,36.73
2016-04-23T02:02:04.029Z,37.12
2016-04-23T02:03:04.032Z,37.12
2016-04-23T02:04:04.065Z,37.78
2016-04-23T02:05:04.100Z,37.88
2016-04-23T02:06:04.102Z,37.78
2016-04-23T02:07:04.121Z,37.88
2016-04-23T02:08:04.139Z,37.97
2016-04-23T02:09:04.174Z,38.17
2016-04-23T02:10:04.191Z,38.07
2016-04-23T02:11:04.209Z,38.07
2016-04-23T02:12:04.228Z,38.07
2016-04-23T02:13:04.246Z,38.07
2016-04-23T02:14:04.265Z,38.07
2016-04-23T02:15:04.298Z,38.17
2016-04-23T02:16:04.317Z,37.68
2016-04-23T02:17:04.335Z,38.07
2016-04-23T02:18:04.353Z,38.07
2016-04-23T02:19:04.371Z,38.07
2016-04-23T02:20:04.406Z,38.17
2016-04-23T02:21:04.409Z,37.49
2016-04-23T02:22:04.442Z,37.97
2016-04-23T02:23:04.455Z,37.97
2016-04-23T02:24:04.473Z,38.35
2016-04-23T02:25:04.491Z,38.26
2016-04-23T02:26:04.525Z,38.35
2016-04-23T02:27:04.543Z,38.45
2016-04-23T02:28:04.562Z,37.88
2016-04-23T02:29:04.580Z,38.26
2016-04-23T02:30:04.614Z,38.26
2016-04-23T02:31:04.633Z,38.26
2016-04-23T02:32:04.651Z,37.97
2016-04-23T02:33:04.669Z,38.17
2016-04-23T02:34:04.687Z,38.45
2016-04-23T02:35:04.705Z,38.35
2016-04-23T02:36:04.724Z,38.17
2016-04-23T02:37:04.758Z,38.45
2016-04-23T02:38:04.776Z,38.54
2016-04-23T02:39:04.779Z,38.45
2016-04-23T02:40:04.813Z,38.45
2016-04-23T02:41:04.831Z,38.45
2016-04-23T02:42:04.865Z,38.45
2016-04-23T02:43:04.868Z,38.35
2016-04-23T02:44:04.887Z,38.64
2016-04-23T02:45:04.904Z,38.54
2016-04-23T02:46:04.939Z,38.73
2016-04-23T02:47:04.957Z,38.73
2016-04-23T02:48:04.975Z,38.64
2016-04-23T02:49:04.993Z,38.62
2016-04-23T02:50:05.011Z,38.54
2016-04-23T02:51:05.031Z,38.54
2016-04-23T02:52:05.048Z,38.83
2016-04-23T02:53:05.066Z,38.34
2016-04-23T02:54:05.101Z,39
2016-04-23T02:55:05.119Z,39
2016-04-23T02:56:05.137Z,38.91
2016-04-23T02:57:05.171Z,38.93
2016-04-23T02:58:05.175Z,38.81
2016-04-23T02:59:05.192Z,39
2016-04-23T03:00:05.210Z,38.62
2016-04-23T03:01:05.244Z,39.19
2016-04-23T03:02:05.247Z,39.1
2016-04-23T03:03:05.281Z,39.19
2016-04-23T03:04:05.315Z,39.29
2016-04-23T03:05:05.318Z,39.29
2016-04-23T03:06:05.461Z,39.29
2016-04-23T03:07:05.354Z,39.48
2016-04-23T03:08:05.388Z,39.48
2016-04-23T03:09:05.391Z,39.29
2016-04-23T03:10:05.425Z,39.39
2016-04-23T03:11:05.443Z,39.48
2016-04-23T03:12:05.461Z,39.19
2016-04-23T03:13:05.480Z,39.67
2016-04-23T03:14:05.498Z,39.76
2016-04-23T03:15:05.516Z,39.39
2016-04-23T03:16:05.551Z,39.48
2016-04-23T03:17:05.568Z,39.67
2016-04-23T03:18:05.587Z,39.58
2016-04-23T03:19:05.606Z,39.58
2016-04-23T03:20:05.624Z,39.67
2016-04-23T03:21:05.642Z,39.86
2016-04-23T03:22:05.661Z,39.86
2016-04-23T03:23:05.678Z,39.58
2016-04-23T03:24:05.697Z,39.67
2016-04-23T03:25:05.714Z,39.67
2016-04-23T03:26:05.749Z,39.67
2016-04-23T03:27:05.784Z,39.67
2016-04-23T03:28:05.786Z,39.76
2016-04-23T03:29:05.805Z,39.86
2016-04-23T03:30:05.822Z,39.86
2016-04-23T03:31:05.841Z,39.76
2016-04-23T03:32:05.859Z,39.67
2016-04-23T03:33:05.877Z,39.58
2016-04-23T03:34:05.911Z,39.76
2016-04-23T03:35:05.914Z,39.86
2016-04-23T03:36:05.949Z,40.05
2016-04-23T03:37:05.966Z,40.44
2016-04-23T03:38:05.985Z,40.34
2016-04-23T03:39:06.003Z,39.95
2016-04-23T03:40:06.021Z,40.34
2016-04-23T03:41:06.039Z,40.05
2016-04-23T03:42:06.073Z,40.05
2016-04-23T03:43:06.093Z,40.05
2016-04-23T03:44:06.110Z,40.24
2016-04-23T03:45:06.144Z,40.15
2016-04-23T03:46:06.146Z,40.24
2016-04-23T03:47:06.165Z,40.15
2016-04-23T03:48:06.184Z,40.15
2016-04-23T03:49:06.217Z,40.15
2016-04-23T03:50:06.236Z,40.15
2016-04-23T03:51:06.254Z,40.34
2016-04-23T03:52:06.273Z,40.63
2016-04-23T03:53:06.290Z,40.53
2016-04-23T03:54:06.309Z,40.34
2016-04-23T03:55:06.327Z,40.53
2016-04-23T03:56:06.349Z,40.34
2016-04-23T03:57:06.368Z,40.53
2016-04-23T03:58:06.385Z,40.6
2016-04-23T03:59:06.405Z,40.53
2016-04-23T04:00:06.422Z,40.44
2016-04-23T04:01:06.441Z,40.53
2016-04-23T04:02:06.476Z,40.53
2016-04-23T04:03:06.478Z,40.53
2016-04-23T04:04:06.495Z,40.91
2016-04-23T04:05:06.545Z,40.7
2016-04-23T04:06:06.548Z,40.7
2016-04-23T04:07:06.567Z,40.91
2016-04-23T04:08:06.585Z,40.72
2016-04-23T04:09:06.603Z,40.81
2016-04-23T04:10:06.621Z,40.81
2016-04-23T04:11:06.640Z,40.99
2016-04-23T04:12:06.673Z,40.91
2016-04-23T04:13:06.692Z,40.81
2016-04-23T04:14:06.711Z,40.91
2016-04-23T04:15:06.713Z,41
2016-04-23T04:16:06.747Z,40.91
2016-04-23T04:17:06.781Z,40.81
2016-04-23T04:18:06.783Z,41.08
2016-04-23T04:19:06.802Z,40.8
2016-04-23T04:20:06.835Z,40.72
2016-04-23T04:21:06.838Z,41.1
2016-04-23T04:22:06.857Z,40.72
2016-04-23T04:23:06.891Z,40.72
2016-04-23T04:24:06.894Z,41.27
2016-04-23T04:25:06.927Z,41
2016-04-23T04:26:06.946Z,41.58
2016-04-23T04:27:06.963Z,41.39
2016-04-23T04:28:06.982Z,41.36
2016-04-23T04:29:07.001Z,41.46
2016-04-23T04:30:07.019Z,41.58
2016-04-23T04:31:07.038Z,41.29
2016-04-23T04:32:07.056Z,41.2
2016-04-23T04:33:07.074Z,41.36
2016-04-23T04:34:07.107Z,41.27
2016-04-23T04:35:07.126Z,41.46
2016-04-23T04:36:07.144Z,41.58
2016-04-23T04:37:07.162Z,41.46
2016-04-23T04:38:07.181Z,41.2
2016-04-23T04:39:07.200Z,41.56
2016-04-23T04:40:07.218Z,41.39
2016-04-23T04:41:07.236Z,41.39
2016-04-23T04:42:07.254Z,41.77
2016-04-23T04:43:07.303Z,41.46
2016-04-23T04:44:07.291Z,41.75
2016-04-23T04:45:07.325Z,41.77
2016-04-23T04:46:07.344Z,41.84
2016-04-23T04:47:07.362Z,41.77
2016-04-23T04:48:07.380Z,41.65
2016-04-23T04:49:07.398Z,41.94
2016-04-23T04:50:07.416Z,41.84
2016-04-23T04:51:07.450Z,41.84
2016-04-23T04:52:07.452Z,41.75
2016-04-23T04:53:07.471Z,41.65
2016-04-23T04:54:07.505Z,41.56
2016-04-23T04:55:07.524Z,42.03
2016-04-23T04:56:07.542Z,41.96
2016-04-23T04:57:07.560Z,41.67
2016-04-23T04:58:07.579Z,42.05
2016-04-23T04:59:07.596Z,41.65
2016-04-23T05:00:07.631Z,41.67
2016-04-23T05:01:07.634Z,41.56
2016-04-23T05:02:07.668Z,41.58
2016-04-23T05:03:07.671Z,41.86
2016-04-23T05:04:07.688Z,41.67
2016-04-23T05:05:07.723Z,41.65
2016-04-23T05:06:07.725Z,41.67
2016-04-23T05:07:07.760Z,41.86
2016-04-23T05:08:07.777Z,42.05
2016-04-23T05:09:07.045Z,41.86
2016-04-23T05:10:07.814Z,41.75
2016-04-23T05:11:07.832Z,42.05
2016-04-23T05:12:07.850Z,42.13
2016-04-23T05:13:07.869Z,42.03
2016-04-23T05:14:07.887Z,42.13
2016-04-23T05:15:07.906Z,42.13
2016-04-23T05:16:07.924Z,42.22
2016-04-23T05:17:07.942Z,42.13
2016-04-23T05:18:07.976Z,42.13
2016-04-23T05:19:08.011Z,42.03
2016-04-23T05:20:08.013Z,42.03
2016-04-23T05:21:08.031Z,42.13
2016-04-23T05:22:08.049Z,42.05
2016-04-23T05:23:08.068Z,42.13
2016-04-23T05:24:08.085Z,42.03
2016-04-23T05:25:08.104Z,42.13
2016-04-23T05:26:08.138Z,42.15
2016-04-23T05:27:08.141Z,42.32
2016-04-23T05:28:08.160Z,42.15
2016-04-23T05:29:08.193Z,42.32
2016-04-23T05:30:08.212Z,42.22
2016-04-23T05:31:08.214Z,42.13
2016-04-23T05:32:08.248Z,42.13
2016-04-23T05:33:08.266Z,42.24
2016-04-23T05:34:08.285Z,42.13
2016-04-23T05:35:08.318Z,42.51
2016-04-23T05:36:08.321Z,42.7
2016-04-23T05:37:08.340Z,42.89
2016-04-23T05:38:08.358Z,42.7
2016-04-23T05:39:08.392Z,42.34
2016-04-23T05:40:08.410Z,42.32
2016-04-23T05:41:08.445Z,42.24
2016-04-23T05:42:08.447Z,42.7
2016-04-23T05:43:08.465Z,41.84
2016-04-23T05:44:08.484Z,42.51
2016-04-23T05:45:08.502Z,42.53
2016-04-23T05:46:08.520Z,42.7
2016-04-23T05:47:08.553Z,42.63
2016-04-23T05:48:08.573Z,42.72
2016-04-23T05:49:08.591Z,42.41
2016-04-23T05:50:08.609Z,42.53
2016-04-23T05:51:08.612Z,42.63
2016-04-23T05:52:08.630Z,42.6
2016-04-23T05:53:08.649Z,42.7
2016-04-23T05:54:08.682Z,42.82
2016-04-23T05:55:08.700Z,42.53
2016-04-23T05:56:08.719Z,41.86
2016-04-23T05:57:08.737Z,42.72
2016-04-23T05:58:08.755Z,42.82
2016-04-23T05:59:08.774Z,41.84
2016-04-23T06:00:08.808Z,42.03
2016-04-23T06:01:08.826Z,42.24
2016-04-23T06:02:08.844Z,42.15
2016-04-23T06:03:08.706Z,42.15
2016-04-23T06:04:08.882Z,42.05
2016-04-23T06:05:08.899Z,42.03
2016-04-23T06:06:08.934Z,42.22
2016-04-23T06:07:08.937Z,42.34
2016-04-23T06:08:08.954Z,42.44
2016-04-23T06:09:08.973Z,41.86
2016-04-23T06:10:08.990Z,41.86
2016-04-23T06:11:09.009Z,42.72
2016-04-23T06:12:09.043Z,42.44
2016-04-23T06:13:09.045Z,41.96
2016-04-23T06:14:09.064Z,41.86
2016-04-23T06:15:09.098Z,42.82
2016-04-23T06:16:09.117Z,41.86
2016-04-23T06:17:09.134Z,41.86
2016-04-23T06:18:09.153Z,42.72
2016-04-23T06:19:09.171Z,42.34
2016-04-23T06:20:09.190Z,42.53
2016-04-23T06:21:09.209Z,42.34
2016-04-23T06:22:09.227Z,42.24
2016-04-23T06:23:09.245Z,42.34
2016-04-23T06:24:09.263Z,42.63
2016-04-23T06:25:09.281Z,42.53
2016-04-23T06:26:09.315Z,42.53
2016-04-23T06:27:09.333Z,42.63
2016-04-23T06:28:09.352Z,42.82
2016-04-23T06:29:09.386Z,41.96
2016-04-23T06:30:09.388Z,42.34
2016-04-23T06:31:09.407Z,42.05
2016-04-23T06:32:09.425Z,42.05
2016-04-23T06:33:09.443Z,42.24
2016-04-23T06:34:09.462Z,41.86
2016-04-23T06:35:09.479Z,42.44
2016-04-23T06:36:09.499Z,42.82
2016-04-23T06:37:09.533Z,42.53
2016-04-23T06:38:09.551Z,42.53
2016-04-23T06:39:09.569Z,42.34
2016-04-23T06:40:09.587Z,42.44
2016-04-23T06:41:09.606Z,42.44
2016-04-23T06:42:09.623Z,42.65
2016-04-23T06:43:09.642Z,42.44
2016-04-23T06:44:09.661Z,42.44
2016-04-23T06:45:09.695Z,42.46
2016-04-23T06:46:09.712Z,42.46
2016-04-23T06:47:09.715Z,42.65
2016-04-23T06:48:09.765Z,42.74
2016-04-23T06:49:09.767Z,42.36
2016-04-23T06:50:09.786Z,42.36
2016-04-23T06:51:09.819Z,42.36
2016-04-23T06:52:09.823Z,42.46
2016-04-23T06:53:09.842Z,42.36
2016-04-23T06:54:09.859Z,42.46
2016-04-23T06:55:09.894Z,42.36
2016-04-23T06:56:09.911Z,42.17
2016-04-23T06:57:09.914Z,42.08
2016-04-23T06:58:09.949Z,42.08
2016-04-23T06:59:09.966Z,41.79
2016-04-23T07:00:09.985Z,42.08
2016-04-23T07:01:10.003Z,41.69
2016-04-23T07:02:10.022Z,41.69
2016-04-23T07:03:10.040Z,41.69
2016-04-23T07:04:10.074Z,41.69
2016-04-23T07:05:10.092Z,41.98
2016-04-23T07:06:10.110Z,41.98
2016-04-23T07:07:10.128Z,41.69
2016-04-23T07:08:10.147Z,41.6
2016-04-23T07:09:10.166Z,41.79
2016-04-23T07:10:10.184Z,41.5
2016-04-23T07:11:10.202Z,41.41
2016-04-23T07:12:10.220Z,41.41
2016-04-23T07:13:10.254Z,41.43
2016-04-23T07:14:10.273Z,41.6
2016-04-23T07:15:10.290Z,41.22
2016-04-23T07:16:10.309Z,41.6
2016-04-23T07:17:10.328Z,41.52
2016-04-23T07:18:10.346Z,41.24
2016-04-23T07:19:10.364Z,41.5
2016-04-23T07:20:10.383Z,41.52
2016-04-23T07:21:10.431Z,41.79
2016-04-23T07:22:10.434Z,41.62
2016-04-23T07:23:10.469Z,41.81
2016-04-23T07:24:10.472Z,41.81
2016-04-23T07:25:10.489Z,41.62
2016-04-23T07:26:10.524Z,41.81
2016-04-23T07:27:10.526Z,41.81
2016-04-23T07:28:10.544Z,41.81
2016-04-23T07:29:10.578Z,41.91
2016-04-23T07:30:10.597Z,42
2016-04-23T07:31:10.615Z,41.81
2016-04-23T07:32:10.633Z,41.62
2016-04-23T07:33:10.652Z,41.81
2016-04-23T07:34:10.670Z,41.62
2016-04-23T07:35:10.704Z,41.52
2016-04-23T07:36:10.722Z,41.52
2016-04-23T07:37:10.741Z,41.43
2016-04-23T07:38:10.774Z,41.45
2016-04-23T07:39:10.777Z,41.26
2016-04-23T07:40:10.795Z,41.06
2016-04-23T07:41:10.846Z,41.06
2016-04-23T07:42:10.908Z,41.06
2016-04-23T07:43:10.986Z,40.88
2016-04-23T07:44:11.049Z,40.97
2016-04-23T07:45:11.111Z,40.88
2016-04-23T07:46:11.151Z,40.78
2016-04-23T07:47:11.202Z,40.88
2016-04-23T07:48:11.221Z,40.78
2016-04-23T07:49:11.255Z,40.69
2016-04-23T07:50:11.290Z,40.59
2016-04-23T07:51:11.332Z,40.2
2016-04-23T07:52:11.356Z,40.11
2016-04-23T07:53:11.380Z,40.2
2016-04-23T07:54:11.404Z,39.73
2016-04-23T07:55:11.428Z,39.54
2016-04-23T07:56:13.730Z,39.73
2016-04-23T07:57:11.485Z,39.54
2016-04-23T07:58:11.506Z,39.44
2016-04-23T07:59:11.526Z,39.44
2016-04-23T08:00:11.546Z,39.35
2016-04-23T08:01:11.565Z,39.44
2016-04-23T08:02:11.599Z,39.35
2016-04-23T08:03:11.604Z,39.44
2016-04-23T08:04:11.638Z,39.25
2016-04-23T08:05:11.658Z,39.35
2016-04-23T08:06:11.676Z,39.27
2016-04-23T08:07:11.711Z,39.27
2016-04-23T08:08:11.714Z,39.37
2016-04-23T08:09:11.747Z,39.27
2016-04-23T08:10:11.767Z,39.18
2016-04-23T08:11:11.689Z,38.6
2016-04-23T08:12:11.803Z,38.79
2016-04-23T08:13:11.822Z,38.51
2016-04-23T08:14:11.856Z,38.32
2016-04-23T08:15:11.874Z,38.32
2016-04-23T08:16:11.892Z,38.32
2016-04-23T08:17:11.910Z,38.51
2016-04-23T08:18:11.929Z,38.41
2016-04-23T08:19:11.947Z,38.32
2016-04-23T08:20:11.980Z,38.32
2016-04-23T08:21:14.108Z,38.32
2016-04-23T08:22:12.018Z,38.41
2016-04-23T08:23:12.036Z,38.22
2016-04-23T08:24:12.054Z,38.22
2016-04-23T08:25:12.089Z,38.22
2016-04-23T08:26:13.950Z,38.12
2016-04-23T08:27:12.122Z,37.93
2016-04-23T08:28:12.141Z,38.03
2016-04-23T08:29:12.159Z,38.03
2016-04-23T08:30:12.182Z,37.55
2016-04-23T08:31:12.200Z,38.12
2016-04-23T08:32:12.219Z,38.12
2016-04-23T08:33:12.253Z,38.12
2016-04-23T08:34:12.271Z,37.95
2016-04-23T08:35:12.289Z,38.14
2016-04-23T08:36:12.323Z,38.34
2016-04-23T08:37:12.342Z,37.85
2016-04-23T08:38:12.359Z,37.85
2016-04-23T08:39:12.379Z,37.19
2016-04-23T08:40:12.397Z,37.38
2016-04-23T08:41:12.430Z,37.48
2016-04-23T08:42:12.434Z,37.19
2016-04-23T08:43:12.451Z,37.48
2016-04-23T08:44:12.485Z,37.85
2016-04-23T08:45:12.504Z,37.19
2016-04-23T08:46:12.553Z,37.38
2016-04-23T08:47:12.555Z,37.48
2016-04-23T08:48:12.589Z,37.48
2016-04-23T08:49:12.593Z,37.48
2016-04-23T08:50:12.611Z,36.99
2016-04-23T08:51:12.644Z,37.38
2016-04-23T08:52:12.648Z,36.9
2016-04-23T08:53:12.682Z,36.9
2016-04-23T08:54:12.699Z,36.33
2016-04-23T08:55:12.718Z,36.61
2016-04-23T08:56:12.736Z,36.43
2016-04-23T08:57:12.771Z,36.61
2016-04-23T08:58:12.789Z,36.71
2016-04-23T08:59:12.901Z,36.61
2016-04-23T09:00:12.826Z,36.23
2016-04-23T09:01:12.859Z,36.33
2016-04-23T09:02:12.877Z,36.33
2016-04-23T09:03:12.896Z,36.23
2016-04-23T09:04:12.914Z,35.75
2016-04-23T09:05:12.964Z,36.54
2016-04-23T09:06:12.951Z,36.25
2016-04-23T09:07:12.985Z,36.35
2016-04-23T09:08:13.003Z,36.73
2016-04-23T09:09:13.037Z,36.63
2016-04-23T09:10:13.039Z,36.63
2016-04-23T09:11:13.073Z,36.25
2016-04-23T09:12:13.092Z,35.96
2016-04-23T09:13:13.111Z,35.29
2016-04-23T09:14:13.128Z,35.49
2016-04-23T09:15:13.162Z,35.2
2016-04-23T09:16:14.462Z,35.2
2016-04-23T09:17:13.214Z,35.2
2016-04-23T09:18:13.233Z,35
2016-04-23T09:19:13.252Z,35.02
2016-04-23T09:20:13.270Z,34.74
2016-04-23T09:21:18.072Z,34.83
2016-04-23T09:22:13.306Z,34.45
2016-04-23T09:23:13.340Z,34.64
2016-04-23T09:24:13.358Z,34.74
2016-04-23T09:25:13.377Z,34.74
2016-04-23T09:26:13.396Z,34.55
2016-04-23T09:27:13.289Z,34.74
2016-04-23T09:28:13.447Z,34.83
2016-04-23T09:29:13.543Z,34.74
2016-04-23T09:30:13.485Z,34.83
2016-04-23T09:31:13.502Z,34.45
2016-04-23T09:32:13.755Z,34.28
2016-04-23T09:33:13.555Z,34.45
2016-04-23T09:34:13.588Z,34.28
2016-04-23T09:35:13.482Z,34.08
2016-04-23T09:36:13.626Z,34.37
2016-04-23T09:37:13.643Z,33.7
2016-04-23T09:38:13.678Z,33.8
2016-04-23T09:39:13.695Z,33.8
2016-04-23T09:40:13.729Z,33.7
2016-04-23T09:41:13.670Z,33.61
2016-04-23T09:42:13.782Z,33.51
2016-04-23T09:43:13.784Z,33.41
2016-04-23T09:44:13.803Z,33.51
2016-04-23T09:45:14.025Z,33.8
2016-04-23T09:46:13.855Z,33.51
2016-04-23T09:47:13.873Z,34.28
2016-04-23T09:48:13.892Z,33.8
2016-04-23T09:49:13.911Z,33.99
2016-04-23T09:50:13.929Z,34.08
2016-04-23T09:51:13.963Z,34.08
2016-04-23T09:52:13.841Z,33.51
2016-04-23T09:53:13.999Z,33.41
2016-04-23T09:54:14.017Z,33.41
2016-04-23T09:55:14.052Z,33.32
2016-04-23T09:56:14.069Z,33.51
2016-04-23T09:57:14.588Z,33.33
2016-04-23T09:58:14.122Z,33.24
2016-04-23T09:59:14.140Z,33.62
2016-04-23T10:00:14.158Z,33.53
2016-04-23T10:01:14.193Z,33.43
2016-04-23T10:02:14.211Z,33.53
2016-04-23T10:03:14.230Z,32.76
2016-04-23T10:04:14.263Z,32.57
2016-04-23T10:05:14.296Z,32.18
2016-04-23T10:06:14.299Z,31.51
2016-04-23T10:07:14.334Z,31.9
2016-04-23T10:08:14.352Z,31.61
2016-04-23T10:09:14.370Z,31.51
2016-04-23T10:10:14.357Z,31.23
2016-04-23T10:11:14.423Z,31.23
2016-04-23T10:12:14.440Z,31.32
2016-04-23T10:13:14.459Z,31.23
2016-04-23T10:14:14.478Z,31.32
2016-04-23T10:15:15.089Z,31.04
2016-04-23T10:16:15.186Z,31.04
2016-04-23T10:17:15.079Z,31.13
2016-04-23T10:18:14.581Z,30.94
2016-04-23T10:19:14.444Z,31.13
2016-04-23T10:20:14.619Z,30.94
2016-04-23T10:21:14.637Z,31.13
2016-04-23T10:22:14.671Z,30.94
2016-04-23T10:23:14.704Z,31.04
2016-04-23T10:24:14.711Z,30.65
2016-04-23T10:25:14.729Z,29.88
2016-04-23T10:26:14.763Z,30.46
2016-04-23T10:27:14.781Z,30.46
2016-04-23T10:28:14.815Z,30.46
2016-04-23T10:29:14.833Z,30.55
2016-04-23T10:30:14.852Z,30.75
2016-04-23T10:31:14.135Z,30.46
2016-04-23T10:32:14.904Z,31.32
2016-04-23T10:33:14.922Z,30.65
2016-04-23T10:34:15.003Z,30.76
2016-04-23T10:35:14.802Z,30.09
2016-04-23T10:36:14.993Z,30
2016-04-23T10:37:15.010Z,29.42
2016-04-23T10:38:15.045Z,29.61
2016-04-23T10:39:15.063Z,29.8
2016-04-23T10:40:15.081Z,29.52
2016-04-23T10:41:15.115Z,29.8
2016-04-23T10:42:15.134Z,29.9
2016-04-23T10:43:15.152Z,29.8
2016-04-23T10:44:15.186Z,29.8
2016-04-23T10:45:15.204Z,29.52
2016-04-23T10:46:15.223Z,29.52
2016-04-23T10:47:15.257Z,29.33
2016-04-23T10:48:15.290Z,29.23
2016-04-23T10:49:15.293Z,29.42
2016-04-23T10:50:15.765Z,29.52
2016-04-23T10:51:15.346Z,29.23
2016-04-23T10:52:15.364Z,29.15
2016-04-23T10:53:15.398Z,29.33
2016-04-23T10:54:15.416Z,29.13
2016-04-23T10:55:15.435Z,28.86
2016-04-23T10:56:15.453Z,28.56
2016-04-23T10:57:15.486Z,28.08
2016-04-23T10:58:15.505Z,28.67
2016-04-23T10:59:15.539Z,28.38
2016-04-23T11:00:15.589Z,28.19
2016-04-23T11:01:15.575Z,28.28
2016-04-23T11:02:15.610Z,28.57
2016-04-23T11:03:15.627Z,28.28
2016-04-23T11:04:15.662Z,28.38
2016-04-23T11:05:15.680Z,28.57
2016-04-23T11:06:15.699Z,28.57
2016-04-23T11:07:15.717Z,28.67
2016-04-23T11:08:15.751Z,28.38
2016-04-23T11:09:15.769Z,27.9
2016-04-23T11:10:15.803Z,27.42
2016-04-23T11:11:15.821Z,27.71
2016-04-23T11:12:15.855Z,26.94
2016-04-23T11:13:15.858Z,26.94
2016-04-23T11:14:15.893Z,26.75
2016-04-23T11:15:15.909Z,26.65
2016-04-23T11:16:15.928Z,26.27
2016-04-23T11:17:15.962Z,25.98
2016-04-23T11:18:15.981Z,26.08
2016-04-23T11:19:16.015Z,26.46
2016-04-23T11:20:16.815Z,26.08
2016-04-23T11:21:16.051Z,26.46
2016-04-23T11:22:16.086Z,26.85
2016-04-23T11:23:16.103Z,26.75
2016-04-23T11:24:16.122Z,25.98
2016-04-23T11:25:16.156Z,25.79
2016-04-23T11:26:16.174Z,25.6
2016-04-23T11:27:16.192Z,25.7
2016-04-23T11:28:16.227Z,25.98
2016-04-23T11:29:16.245Z,25.98
2016-04-23T11:30:16.263Z,25.89
2016-04-23T11:31:16.297Z,26.46
2016-04-23T11:32:16.316Z,26.65
2016-04-23T11:33:16.333Z,26.85
2016-04-23T11:34:16.946Z,27.33
2016-04-23T11:35:16.449Z,26.85
2016-04-23T11:36:16.420Z,27.04
2016-04-23T11:37:16.438Z,27.52
2016-04-23T11:38:16.457Z,27.14
2016-04-23T11:39:16.491Z,27.23
2016-04-23T11:40:16.509Z,26.94
2016-04-23T11:41:16.543Z,27.33
2016-04-23T11:42:16.560Z,27.61
2016-04-23T11:43:16.579Z,28.09
2016-04-23T11:44:16.598Z,28
2016-04-23T11:45:16.632Z,28.09
2016-04-23T11:46:16.651Z,28.09
2016-04-23T11:47:16.684Z,27.72
2016-04-23T11:48:16.701Z,28
2016-04-23T11:49:17.080Z,28.38
2016-04-23T11:50:16.754Z,27.82
2016-04-23T11:51:16.773Z,27.82
2016-04-23T11:52:16.807Z,27.72
2016-04-23T11:53:16.826Z,27.53
2016-04-23T11:54:16.843Z,26.95
2016-04-23T11:55:16.861Z,26.86
2016-04-23T11:56:16.895Z,26.76
2016-04-23T11:57:16.914Z,26.38
2016-04-23T11:58:16.948Z,26.09
2016-04-23T11:59:16.966Z,26.28
2016-04-23T12:00:17.000Z,25.71
2016-04-23T12:01:17.019Z,25.99
2016-04-23T12:02:17.037Z,25.61
2016-04-23T12:03:17.055Z,25.52
2016-04-23T12:04:17.105Z,25.9
2016-04-23T12:05:17.232Z,26.09
2016-04-23T12:06:17.125Z,26.95
2016-04-23T12:07:17.175Z,26.76
2016-04-23T12:08:17.194Z,27.25
2016-04-23T12:09:17.227Z,27.44
2016-04-23T12:10:17.261Z,27.34
2016-04-23T12:11:17.264Z,27.45
2016-04-23T12:12:17.298Z,27.53
2016-04-23T12:13:17.301Z,26.57
2016-04-23T12:14:17.350Z,26.97
2016-04-23T12:15:17.368Z,26.76
2016-04-23T12:16:17.402Z,26.78
2016-04-23T12:17:17.421Z,26.59
2016-04-23T12:18:17.423Z,27.26
2016-04-23T12:19:17.442Z,27.06
2016-04-23T12:20:17.491Z,26.68
2016-04-23T12:21:17.510Z,26.1
2016-04-23T12:22:17.543Z,26.49
2016-04-23T12:23:17.562Z,26.19
2016-04-23T12:24:17.580Z,26.2
2016-04-23T12:25:17.614Z,25.92
2016-04-23T12:26:17.633Z,26.09
2016-04-23T12:27:17.667Z,25.53
2016-04-23T12:28:17.685Z,25.62
2016-04-23T12:29:17.703Z,25.34
2016-04-23T12:30:17.721Z,25.34
2016-04-23T12:31:17.739Z,25.53
2016-04-23T12:32:17.774Z,24.76
2016-04-23T12:33:17.792Z,25.15
2016-04-23T12:34:17.826Z,25.53
2016-04-23T12:35:17.735Z,25.24
2016-04-23T12:36:17.878Z,25.53
2016-04-23T12:37:17.913Z,25.92
2016-04-23T12:38:17.915Z,25.53
2016-04-23T12:39:17.949Z,25.34
2016-04-23T12:40:17.966Z,25.34
2016-04-23T12:41:17.985Z,25.34
2016-04-23T12:42:18.019Z,25.53
2016-04-23T12:43:18.038Z,25.24
2016-04-23T12:44:18.071Z,25.15
2016-04-23T12:45:18.090Z,24.86
2016-04-23T12:46:18.108Z,25.15
2016-04-23T12:47:18.174Z,24.86
2016-04-23T12:48:18.176Z,24.86
2016-04-23T12:49:18.195Z,24.95
2016-04-23T12:50:18.087Z,24.95
2016-04-23T12:51:18.231Z,24.95
2016-04-23T12:52:18.265Z,24.95
2016-04-23T12:53:18.299Z,24.86
2016-04-23T12:54:18.333Z,24.86
2016-04-23T12:55:18.351Z,25.34